Time;durP1;ratioP1;P1;durP2;ratioP2;P2;SDS_P1;SDS_P2;PMS_P1;PMS_P2;Temp;Humidity;BMP_temperature;BMP_pressure;BME280_temperature;BME280_humidity;BME280_pressure;Samples;Min_cycle;Max_cycle;Signal;HPM_P1;HPM_P2
2022/02/17 00:00:41;;;;;;;;;0.67;0.67;;;;;;;;5065001;28;45335;-91
2022/02/17 00:03:06;;;;;;;;;0.00;0.00;;;;;;;;5062544;27;45346;-91
2022/02/17 00:05:32;;;;;;;;;0.00;0.00;;;;;;;;5074781;27;45583;-91
2022/02/17 00:07:58;;;;;;;;;0.00;0.00;;;;;;;;5060707;28;47159;-91
2022/02/17 00:10:24;;;;;;;;;0.00;0.00;;;;;;;;5062415;28;45532;-92
2022/02/17 00:12:50;;;;;;;;;0.00;0.00;;;;;;;;5072878;27;45556;-92
2022/02/17 00:15:15;;;;;;;;;0.00;0.00;;;;;;;;5082982;27;45438;-91
2022/02/17 00:17:40;;;;;;;;;1.00;0.00;;;;;;;;5077343;27;46530;-91
2022/02/17 00:20:06;;;;;;;;;0.00;0.00;;;;;;;;5071923;27;45561;-93
2022/02/17 00:22:31;;;;;;;;;0.67;0.67;;;;;;;;5087681;27;45382;-92
2022/02/17 00:24:56;;;;;;;;;0.00;0.00;;;;;;;;5099599;27;44835;-93
2022/02/17 00:27:22;;;;;;;;;0.00;0.00;;;;;;;;5087765;27;47284;-92
2022/02/17 00:29:47;;;;;;;;;1.00;0.00;;;;;;;;5104403;27;45123;-92
2022/02/17 00:32:12;;;;;;;;;0.00;0.00;;;;;;;;5082607;27;45285;-93
2022/02/17 00:34:37;;;;;;;;;0.00;0.00;;;;;;;;5062507;28;45603;-92
2022/02/17 00:37:03;;;;;;;;;0.00;0.00;;;;;;;;5074249;27;46208;-93
2022/02/17 00:39:30;;;;;;;;;0.00;0.00;;;;;;;;5061621;27;45436;-92
2022/02/17 00:41:55;;;;;;;;;0.00;0.00;;;;;;;;5084693;27;45867;-92
2022/02/17 00:44:20;;;;;;;;;1.00;0.00;;;;;;;;5058208;27;45452;-91
2022/02/17 00:46:45;;;;;;;;;1.00;0.00;;;;;;;;5080385;27;45715;-92
2022/02/17 00:49:11;;;;;;;;;0.00;0.00;;;;;;;;5062327;28;45890;-91
2022/02/17 00:51:36;;;;;;;;;0.00;0.00;;;;;;;;5076983;27;45605;-92
2022/02/17 00:54:01;;;;;;;;;1.00;0.00;;;;;;;;5076405;27;45461;-92
2022/02/17 00:56:26;;;;;;;;;0.00;0.00;;;;;;;;5072800;27;45838;-90
2022/02/17 00:58:52;;;;;;;;;1.00;1.00;;;;;;;;5059594;28;45333;-90
2022/02/17 01:01:17;;;;;;;;;0.00;0.00;;;;;;;;5058237;28;45488;-91
2022/02/17 01:03:42;;;;;;;;;0.00;0.00;;;;;;;;5077850;27;45365;-91
2022/02/17 01:06:07;;;;;;;;;0.00;0.00;;;;;;;;5059138;27;45964;-90
2022/02/17 01:08:33;;;;;;;;;0.00;0.00;;;;;;;;5071176;27;45459;-90
2022/02/17 01:10:58;;;;;;;;;3.67;0.33;;;;;;;;5094367;27;45459;-91
2022/02/17 01:13:23;;;;;;;;;0.00;0.00;;;;;;;;5064985;28;45459;-90
2022/02/17 01:15:49;;;;;;;;;0.00;0.00;;;;;;;;5075792;27;46307;-90
2022/02/17 01:18:14;;;;;;;;;0.00;0.00;;;;;;;;5060769;28;45489;-91
2022/02/17 01:20:40;;;;;;;;;0.00;0.00;;;;;;;;5063345;27;45384;-91
2022/02/17 01:23:06;;;;;;;;;0.00;0.00;;;;;;;;5055780;28;45686;-90
2022/02/17 01:25:31;;;;;;;;;0.00;0.00;;;;;;;;5078350;27;45579;-91
2022/02/17 01:27:57;;;;;;;;;0.00;0.00;;;;;;;;5080998;27;46004;-91
2022/02/17 01:30:22;;;;;;;;;0.00;0.00;;;;;;;;5067472;28;45401;-92
2022/02/17 01:32:48;;;;;;;;;0.00;0.00;;;;;;;;5060790;27;45505;-92
2022/02/17 01:35:13;;;;;;;;;2.00;1.00;;;;;;;;5066281;28;48080;-92
2022/02/17 01:37:38;;;;;;;;;0.00;0.00;;;;;;;;5060521;28;45780;-91
2022/02/17 01:40:04;;;;;;;;;0.00;0.00;;;;;;;;5057445;28;45703;-91
2022/02/17 01:42:29;;;;;;;;;1.00;1.00;;;;;;;;5059886;28;45709;-91
2022/02/17 01:44:54;;;;;;;;;1.00;1.00;;;;;;;;5060117;27;46320;-91
2022/02/17 01:47:20;;;;;;;;;2.00;0.00;;;;;;;;5070248;27;45423;-92
2022/02/17 01:49:47;;;;;;;;;2.00;0.00;;;;;;;;5060601;28;45440;-91
2022/02/17 01:52:13;;;;;;;;;1.00;0.00;;;;;;;;5055573;28;45319;-92
2022/02/17 01:54:39;;;;;;;;;1.00;0.00;;;;;;;;5067237;27;47279;-92
2022/02/17 01:57:06;;;;;;;;;0.00;0.00;;;;;;;;5065493;27;45481;-92
2022/02/17 01:59:32;;;;;;;;;1.67;1.00;;;;;;;;5084487;27;45478;-91
2022/02/17 02:01:57;;;;;;;;;0.00;0.00;;;;;;;;5056890;28;45474;-90
2022/02/17 02:04:22;;;;;;;;;4.67;3.00;;;;;;;;5064556;28;46913;-91
2022/02/17 02:06:47;;;;;;;;;3.00;0.33;;;;;;;;5059414;27;45563;-91
2022/02/17 02:09:16;;;;;;;;;1.67;1.00;;;;;;;;5066930;28;45465;-91
2022/02/17 02:11:41;;;;;;;;;3.33;0.67;;;;;;;;5058536;27;48719;-91
2022/02/17 02:14:12;;;;;;;;;2.00;1.00;;;;;;;;5054437;28;47152;-91
2022/02/17 02:16:37;;;;;;;;;1.00;1.00;;;;;;;;5066394;27;45784;-91
2022/02/17 02:19:02;;;;;;;;;1.00;1.00;;;;;;;;5075575;27;45572;-91
2022/02/17 02:21:28;;;;;;;;;1.00;1.00;;;;;;;;5059860;28;45823;-91
2022/02/17 02:23:53;;;;;;;;;2.33;1.00;;;;;;;;5070957;28;46502;-91
2022/02/17 02:26:18;;;;;;;;;3.00;2.00;;;;;;;;5051441;28;45627;-91
2022/02/17 02:28:43;;;;;;;;;5.67;3.00;;;;;;;;5060290;28;45545;-91
2022/02/17 02:31:08;;;;;;;;;3.67;1.00;;;;;;;;5070161;28;45463;-91
2022/02/17 02:33:34;;;;;;;;;2.00;2.00;;;;;;;;5056313;27;48115;-91
2022/02/17 02:36:00;;;;;;;;;6.00;1.67;;;;;;;;5059344;27;45495;-91
2022/02/17 02:38:25;;;;;;;;;4.00;1.33;;;;;;;;5053028;28;45461;-91
2022/02/17 02:40:51;;;;;;;;;2.67;2.00;;;;;;;;5073092;28;45454;-92
2022/02/17 02:43:16;;;;;;;;;2.00;1.67;;;;;;;;5070277;28;45479;-91
2022/02/17 02:45:43;;;;;;;;;2.00;1.00;;;;;;;;5074872;27;45416;-91
2022/02/17 02:48:09;;;;;;;;;1.00;1.00;;;;;;;;5058798;27;45436;-91
2022/02/17 02:50:35;;;;;;;;;2.00;2.00;;;;;;;;5069920;27;45579;-91
2022/02/17 02:53:01;;;;;;;;;4.00;2.00;;;;;;;;5073253;27;46414;-90
2022/02/17 02:55:26;;;;;;;;;3.33;0.67;;;;;;;;5060125;28;45681;-91
2022/02/17 02:57:52;;;;;;;;;2.00;1.00;;;;;;;;5058185;28;45510;-91
2022/02/17 03:00:17;;;;;;;;;2.00;2.00;;;;;;;;5059301;28;45486;-91
2022/02/17 03:02:43;;;;;;;;;3.33;2.00;;;;;;;;5053772;28;46423;-91
2022/02/17 03:05:08;;;;;;;;;0.67;0.00;;;;;;;;5071625;27;45799;-90
2022/02/17 03:07:33;;;;;;;;;4.67;1.00;;;;;;;;5062071;28;45366;-91
2022/02/17 03:09:59;;;;;;;;;4.00;2.00;;;;;;;;5060556;28;45379;-91
2022/02/17 03:12:24;;;;;;;;;1.33;0.67;;;;;;;;5061657;28;48049;-91
2022/02/17 03:14:49;;;;;;;;;4.00;4.00;;;;;;;;5062425;27;45829;-90
2022/02/17 03:17:14;;;;;;;;;4.00;3.00;;;;;;;;5056802;28;45361;-89
2022/02/17 03:19:40;;;;;;;;;1.00;1.00;;;;;;;;5081355;27;45344;-91
2022/02/17 03:22:05;;;;;;;;;4.67;2.00;;;;;;;;5060016;28;47005;-90
2022/02/17 03:24:30;;;;;;;;;6.33;3.33;;;;;;;;5075980;27;45449;-91
2022/02/17 03:26:56;;;;;;;;;3.00;2.00;;;;;;;;5069302;27;45434;-90
2022/02/17 03:29:21;;;;;;;;;5.00;2.00;;;;;;;;5090017;27;45320;-90
2022/02/17 03:31:46;;;;;;;;;9.00;4.67;;;;;;;;5058391;27;47463;-90
2022/02/17 03:34:11;;;;;;;;;4.00;3.00;;;;;;;;5062333;28;45470;-90
2022/02/17 03:36:37;;;;;;;;;6.00;2.00;;;;;;;;5077333;27;45425;-91
2022/02/17 03:39:02;;;;;;;;;5.00;3.00;;;;;;;;5061192;27;45510;-90
2022/02/17 03:41:28;;;;;;;;;4.67;3.00;;;;;;;;5058489;27;47432;-91
2022/02/17 03:43:53;;;;;;;;;4.33;2.33;;;;;;;;5078386;27;45504;-90
2022/02/17 03:46:18;;;;;;;;;3.67;3.33;;;;;;;;5060484;28;45356;-91
2022/02/17 03:48:43;;;;;;;;;6.33;3.00;;;;;;;;5061672;28;45340;-90
2022/02/17 03:51:09;;;;;;;;;6.33;4.00;;;;;;;;5080353;27;46156;-91
2022/02/17 03:53:34;;;;;;;;;8.67;5.00;;;;;;;;5066881;27;45286;-91
2022/02/17 03:55:59;;;;;;;;;7.00;4.00;;;;;;;;5075771;27;45468;-92
2022/02/17 04:01:08;;;;;;;;;11.00;6.33;;;;;;;;5076779;27;45480;-92
2022/02/17 04:03:33;;;;;;;;;7.00;5.33;;;;;;;;5076982;27;45490;-92
2022/02/17 04:05:59;;;;;;;;;6.00;3.00;;;;;;;;5062463;27;45548;-92
2022/02/17 04:08:24;;;;;;;;;3.67;3.67;;;;;;;;5078961;28;45588;-92
2022/02/17 04:10:49;;;;;;;;;9.00;3.00;;;;;;;;5085116;28;47255;-92
2022/02/17 04:13:14;;;;;;;;;6.67;4.33;;;;;;;;5063758;28;44817;-92
2022/02/17 04:15:40;;;;;;;;;5.67;4.67;;;;;;;;5103573;27;44747;-91
2022/02/17 04:18:05;;;;;;;;;7.33;3.00;;;;;;;;5100667;27;44773;-92
2022/02/17 04:20:30;;;;;;;;;12.67;5.67;;;;;;;;5060904;27;46957;-92
2022/02/17 04:22:55;;;;;;;;;5.67;4.33;;;;;;;;5059381;28;53557;-91
2022/02/17 04:25:20;;;;;;;;;3.00;2.33;;;;;;;;5074708;27;45381;-92
2022/02/17 04:27:46;;;;;;;;;3.00;2.67;;;;;;;;5064731;28;45537;-92
2022/02/17 04:30:11;;;;;;;;;6.00;3.00;;;;;;;;5066355;28;45723;-92
2022/02/17 04:32:36;;;;;;;;;4.00;4.00;;;;;;;;5070650;28;45466;-91
2022/02/17 04:35:01;;;;;;;;;9.33;5.00;;;;;;;;5073862;28;51184;-92
2022/02/17 04:37:26;;;;;;;;;7.67;3.67;;;;;;;;5062340;28;45443;-92
2022/02/17 04:39:52;;;;;;;;;5.33;2.33;;;;;;;;5066008;27;47074;-91
2022/02/17 04:42:18;;;;;;;;;5.33;3.00;;;;;;;;5063996;27;46666;-91
2022/02/17 04:44:44;;;;;;;;;5.00;4.00;;;;;;;;5084479;27;45465;-92
2022/02/17 04:47:10;;;;;;;;;6.00;3.67;;;;;;;;5055999;28;45303;-92
2022/02/17 04:49:35;;;;;;;;;9.00;5.33;;;;;;;;5074520;28;46555;-91
2022/02/17 04:52:00;;;;;;;;;12.00;4.00;;;;;;;;5062546;28;45408;-92
2022/02/17 04:54:27;;;;;;;;;5.67;4.67;;;;;;;;5072542;28;45528;-91
2022/02/17 04:56:52;;;;;;;;;6.67;4.67;;;;;;;;5058270;28;45551;-92
2022/02/17 04:59:17;;;;;;;;;11.00;3.00;;;;;;;;5055230;28;49041;-92
2022/02/17 05:01:43;;;;;;;;;9.33;5.00;;;;;;;;5062606;28;45416;-92
2022/02/17 05:04:08;;;;;;;;;8.00;4.67;;;;;;;;5068548;28;45358;-92
2022/02/17 05:06:33;;;;;;;;;16.00;9.33;;;;;;;;5067210;28;45515;-91
2022/02/17 05:08:58;;;;;;;;;14.00;5.67;;;;;;;;5067577;27;45500;-93
2022/02/17 05:11:23;;;;;;;;;6.33;5.67;;;;;;;;5069150;28;45657;-92
2022/02/17 05:13:49;;;;;;;;;10.00;4.33;;;;;;;;5074809;28;45368;-92
2022/02/17 05:16:14;;;;;;;;;10.33;5.67;;;;;;;;5060328;28;45683;-93
2022/02/17 05:18:39;;;;;;;;;8.33;4.00;;;;;;;;5059626;28;47726;-91
2022/02/17 05:21:04;;;;;;;;;11.00;7.00;;;;;;;;5060777;27;45431;-92
2022/02/17 05:23:29;;;;;;;;;5.67;3.67;;;;;;;;5073117;28;45516;-92
2022/02/17 05:25:55;;;;;;;;;13.33;6.33;;;;;;;;5071838;27;45383;-92
2022/02/17 05:28:20;;;;;;;;;5.33;3.00;;;;;;;;5072624;28;45441;-92
2022/02/17 05:30:45;;;;;;;;;12.67;7.67;;;;;;;;5071941;27;45395;-91
2022/02/17 05:33:13;;;;;;;;;10.00;4.00;;;;;;;;5069173;28;45503;-92
2022/02/17 05:35:39;;;;;;;;;11.00;7.33;;;;;;;;5073190;28;45372;-91
2022/02/17 05:38:04;;;;;;;;;6.00;5.00;;;;;;;;5056113;28;47099;-91
2022/02/17 05:40:30;;;;;;;;;3.67;3.67;;;;;;;;5075846;28;45424;-92
2022/02/17 05:42:55;;;;;;;;;13.33;6.33;;;;;;;;5059763;28;45661;-91
2022/02/17 05:45:20;;;;;;;;;10.00;5.67;;;;;;;;5057724;28;45313;-92
2022/02/17 05:47:46;;;;;;;;;9.33;5.33;;;;;;;;5065220;28;48721;-91
2022/02/17 05:50:11;;;;;;;;;10.00;7.67;;;;;;;;5072290;27;45356;-92
2022/02/17 05:52:36;;;;;;;;;9.33;5.67;;;;;;;;5058062;28;45362;-92
2022/02/17 05:55:01;;;;;;;;;5.00;5.00;;;;;;;;5070919;27;45398;-92
2022/02/17 05:57:27;;;;;;;;;10.00;4.67;;;;;;;;5065625;28;48384;-92
2022/02/17 05:59:52;;;;;;;;;15.67;7.33;;;;;;;;5060662;27;45558;-92
2022/02/17 06:02:17;;;;;;;;;11.33;6.67;;;;;;;;5077090;27;45095;-91
2022/02/17 06:04:43;;;;;;;;;10.67;4.00;;;;;;;;5062959;28;45382;-92
2022/02/17 06:07:09;;;;;;;;;12.00;5.67;;;;;;;;5059897;28;47538;-92
2022/02/17 06:09:34;;;;;;;;;9.00;8.00;;;;;;;;5070938;28;45475;-92
2022/02/17 06:11:59;;;;;;;;;8.33;5.00;;;;;;;;5070841;28;45430;-91
2022/02/17 06:14:24;;;;;;;;;11.00;5.00;;;;;;;;5052708;28;45467;-91
2022/02/17 06:16:50;;;;;;;;;4.67;4.67;;;;;;;;5068595;27;47372;-92
2022/02/17 06:19:15;;;;;;;;;11.00;6.67;;;;;;;;5071318;28;45328;-91
2022/02/17 06:21:40;;;;;;;;;9.67;4.67;;;;;;;;5059611;28;45380;-92
2022/02/17 06:24:05;;;;;;;;;14.33;8.67;;;;;;;;5059428;28;45416;-92
2022/02/17 06:26:31;;;;;;;;;8.00;5.67;;;;;;;;5074840;27;45383;-91
2022/02/17 06:28:58;;;;;;;;;5.67;4.00;;;;;;;;5078389;28;46205;-92
2022/02/17 06:31:23;;;;;;;;;10.67;7.67;;;;;;;;5057721;28;45719;-92
2022/02/17 06:33:49;;;;;;;;;12.33;7.67;;;;;;;;5075114;27;49153;-91
2022/02/17 06:36:17;;;;;;;;;10.67;9.33;;;;;;;;5064560;28;47124;-92
2022/02/17 06:38:42;;;;;;;;;15.00;10.33;;;;;;;;5070535;27;45456;-92
2022/02/17 06:41:07;;;;;;;;;17.33;9.67;;;;;;;;5108226;22;45410;-92
2022/02/17 06:43:35;;;;;;;;;15.00;7.67;;;;;;;;5079724;27;45669;-91
2022/02/17 06:46:00;;;;;;;;;13.00;7.67;;;;;;;;5079245;27;47124;-91
2022/02/17 06:48:25;;;;;;;;;16.67;8.00;;;;;;;;5078684;27;45563;-92
2022/02/17 06:50:50;;;;;;;;;12.67;8.33;;;;;;;;5079299;27;45300;-92
2022/02/17 06:53:15;;;;;;;;;16.00;9.33;;;;;;;;5075493;27;45593;-91
2022/02/17 06:55:41;;;;;;;;;15.00;8.33;;;;;;;;5079656;27;48275;-92
2022/02/17 06:58:06;;;;;;;;;17.33;6.33;;;;;;;;5078833;27;45915;-92
2022/02/17 07:00:31;;;;;;;;;9.00;6.67;;;;;;;;5085609;27;45539;-91
2022/02/17 07:02:57;;;;;;;;;8.67;5.67;;;;;;;;5082523;27;45510;-91
2022/02/17 07:05:24;;;;;;;;;10.67;5.67;;;;;;;;5083514;27;47256;-91
2022/02/17 07:07:50;;;;;;;;;12.67;9.00;;;;;;;;5080432;27;45883;-91
2022/02/17 07:10:54;;;;;;;;;11.67;7.00;;;;;;;;5087570;27;45605;-90
2022/02/17 07:13:00;;;;;;;;;13.67;7.33;;;;;;;;5095248;27;45318;-92
2022/02/17 07:15:26;;;;;;;;;14.00;7.33;;;;;;;;5085346;27;47281;-90
2022/02/17 07:17:51;;;;;;;;;9.33;6.67;;;;;;;;5084854;27;46063;-91
2022/02/17 07:20:16;;;;;;;;;12.33;4.00;;;;;;;;5077200;27;45311;-90
2022/02/17 07:22:42;;;;;;;;;15.67;8.00;;;;;;;;5086709;27;46520;-92
2022/02/17 07:25:07;;;;;;;;;8.67;8.67;;;;;;;;5079192;27;48268;-86
2022/02/17 07:27:32;;;;;;;;;9.33;7.67;;;;;;;;5093919;27;45519;-87
2022/02/17 07:29:58;;;;;;;;;18.33;8.00;;;;;;;;5083818;27;45486;-87
2022/02/17 07:32:23;;;;;;;;;13.67;9.00;;;;;;;;5076372;27;45545;-87
2022/02/17 07:34:48;;;;;;;;;11.00;10.00;;;;;;;;5095788;27;45396;-85
2022/02/17 07:37:16;;;;;;;;;9.00;7.67;;;;;;;;5077166;27;45478;-86
2022/02/17 07:39:42;;;;;;;;;16.33;9.00;;;;;;;;5089151;27;53467;-87
2022/02/17 07:42:07;;;;;;;;;12.33;10.33;;;;;;;;5063131;27;45473;-87
2022/02/17 07:44:33;;;;;;;;;11.33;8.33;;;;;;;;5073172;28;47247;-87
2022/02/17 07:46:58;;;;;;;;;9.67;7.67;;;;;;;;5091603;27;45504;-87
2022/02/17 07:49:23;;;;;;;;;12.00;10.67;;;;;;;;5089505;27;45386;-87
2022/02/17 07:51:48;;;;;;;;;15.00;10.00;;;;;;;;5068367;28;45660;-87
2022/02/17 07:54:13;;;;;;;;;13.67;10.67;;;;;;;;5067999;27;46167;-87
2022/02/17 07:56:39;;;;;;;;;8.33;5.33;;;;;;;;5073831;27;45370;-87
2022/02/17 07:59:04;;;;;;;;;17.67;8.67;;;;;;;;5078646;27;45323;-87
2022/02/17 08:01:29;;;;;;;;;10.33;9.67;;;;;;;;5095923;27;45825;-87
2022/02/17 08:03:54;;;;;;;;;9.67;7.67;;;;;;;;5087479;27;47220;-86
2022/02/17 08:06:20;;;;;;;;;9.67;8.00;;;;;;;;5066034;27;46513;-87
2022/02/17 08:08:48;;;;;;;;;10.33;6.33;;;;;;;;5086297;27;45613;-87
2022/02/17 08:11:13;;;;;;;;;14.33;9.33;;;;;;;;5067357;27;45430;-86
2022/02/17 08:13:39;;;;;;;;;15.00;8.33;;;;;;;;5083704;27;46270;-87
2022/02/17 08:16:04;;;;;;;;;10.33;8.67;;;;;;;;5061871;27;45575;-87
2022/02/17 08:18:29;;;;;;;;;13.33;9.00;;;;;;;;5083599;27;45451;-87
2022/02/17 08:20:54;;;;;;;;;14.00;7.33;;;;;;;;5085568;27;45441;-87
2022/02/17 08:23:19;;;;;;;;;13.67;8.33;;;;;;;;5064927;27;48229;-88
2022/02/17 08:25:45;;;;;;;;;14.33;9.00;;;;;;;;5092003;27;45740;-87
2022/02/17 08:28:10;;;;;;;;;14.33;8.00;;;;;;;;5066959;27;46765;-87
2022/02/17 08:30:38;;;;;;;;;13.67;7.33;;;;;;;;5093309;27;45570;-87
2022/02/17 08:33:03;;;;;;;;;10.67;7.33;;;;;;;;5069196;27;48235;-86
2022/02/17 08:35:29;;;;;;;;;8.67;4.67;;;;;;;;5062598;27;45659;-87
2022/02/17 08:37:56;;;;;;;;;12.33;4.67;;;;;;;;5109333;27;45449;-86
2022/02/17 08:40:22;;;;;;;;;13.33;5.33;;;;;;;;5083670;27;45709;-86
2022/02/17 08:42:47;;;;;;;;;20.00;11.67;;;;;;;;5089868;27;46335;-87
2022/02/17 08:45:12;;;;;;;;;13.00;11.00;;;;;;;;5078483;27;45447;-86
2022/02/17 08:47:37;;;;;;;;;12.67;8.67;;;;;;;;5083383;27;45383;-85
2022/02/17 08:50:03;;;;;;;;;13.00;9.00;;;;;;;;5072266;27;45494;-86
2022/02/17 08:52:28;;;;;;;;;11.00;10.67;;;;;;;;5071121;27;48413;-86
2022/02/17 08:54:53;;;;;;;;;16.33;9.33;;;;;;;;5094270;27;45271;-86
2022/02/17 08:57:19;;;;;;;;;9.00;5.33;;;;;;;;5093701;27;45234;-86
2022/02/17 08:59:44;;;;;;;;;13.00;9.67;;;;;;;;5074548;27;45510;-87
2022/02/17 09:02:10;;;;;;;;;17.67;9.67;;;;;;;;5106779;27;46470;-86
2022/02/17 09:04:37;;;;;;;;;10.00;8.33;;;;;;;;5103779;27;45503;-86
2022/02/17 09:07:02;;;;;;;;;14.00;8.33;;;;;;;;5080516;27;45816;-86
2022/02/17 09:09:27;;;;;;;;;18.67;12.00;;;;;;;;5095856;27;45605;-87
2022/02/17 09:11:53;;;;;;;;;16.33;6.00;;;;;;;;5094716;27;46399;-86
2022/02/17 09:14:19;;;;;;;;;9.33;7.67;;;;;;;;5079136;27;45572;-87
2022/02/17 09:16:45;;;;;;;;;12.00;9.33;;;;;;;;5083547;27;45717;-87
2022/02/17 09:19:10;;;;;;;;;11.67;8.67;;;;;;;;5078184;27;45650;-87
2022/02/17 09:21:36;;;;;;;;;13.33;9.67;;;;;;;;5066830;27;48159;-87
2022/02/17 09:24:01;;;;;;;;;11.00;8.00;;;;;;;;5088941;27;45628;-87
2022/02/17 09:26:29;;;;;;;;;12.67;6.33;;;;;;;;5071422;27;45487;-87
2022/02/17 09:28:54;;;;;;;;;13.33;10.00;;;;;;;;5086523;27;45516;-87
2022/02/17 09:31:22;;;;;;;;;21.67;12.33;;;;;;;;5080432;27;47313;-87
2022/02/17 09:33:49;;;;;;;;;10.33;5.67;;;;;;;;5073317;27;45808;-88
2022/02/17 09:36:14;;;;;;;;;11.67;6.33;;;;;;;;5092422;27;45402;-87
2022/02/17 09:38:40;;;;;;;;;6.00;6.00;;;;;;;;5085215;27;45374;-87
2022/02/17 09:41:06;;;;;;;;;12.33;7.33;;;;;;;;5083551;27;48317;-88
2022/02/17 09:43:31;;;;;;;;;10.00;7.67;;;;;;;;5109201;27;45743;-88
2022/02/17 09:45:57;;;;;;;;;9.67;5.00;;;;;;;;5094793;27;45370;-88
2022/02/17 09:48:22;;;;;;;;;13.00;9.00;;;;;;;;5077427;27;45673;-87
2022/02/17 09:50:48;;;;;;;;;12.67;10.33;;;;;;;;5078464;27;48702;-87
2022/02/17 09:53:14;;;;;;;;;13.67;8.33;;;;;;;;5096417;27;45545;-87
2022/02/17 09:55:40;;;;;;;;;3.33;1.00;;;;;;;;5095714;27;45520;-87
2022/02/17 09:58:05;;;;;;;;;8.33;6.00;;;;;;;;5077129;27;45656;-88
2022/02/17 10:00:30;;;;;;;;;13.67;10.00;;;;;;;;5080933;27;48241;-87
2022/02/17 10:03:15;;;;;;;;;16.33;10.67;;;;;;;;5104113;27;45418;-87
2022/02/17 10:06:00;;;;;;;;;13.00;7.33;;;;;;;;5101481;27;45365;-87
2022/02/17 10:08:26;;;;;;;;;11.67;9.00;;;;;;;;5076932;27;45335;-88
2022/02/17 10:10:51;;;;;;;;;13.00;7.33;;;;;;;;5086618;27;46469;-87
2022/02/17 10:13:17;;;;;;;;;13.00;8.67;;;;;;;;5081877;27;45427;-87
2022/02/17 10:15:43;;;;;;;;;7.33;5.00;;;;;;;;5074608;27;45410;-87
2022/02/17 10:18:16;;;;;;;;;10.00;6.00;;;;;;;;5101105;27;49797;-87
2022/02/17 10:20:52;;;;;;;;;13.33;10.00;;;;;;;;5073904;27;47407;-89
2022/02/17 10:23:18;;;;;;;;;15.00;6.67;;;;;;;;5090200;27;45615;-88
2022/02/17 10:26:16;;;;;;;;;12.67;7.00;;;;;;;;5073840;27;45454;-87
2022/02/17 10:28:44;;;;;;;;;12.67;6.33;;;;;;;;5033445;28;45551;-88
2022/02/17 10:31:29;;;;;;;;;11.33;9.00;;;;;;;;5020099;28;47990;-88
2022/02/17 10:33:55;;;;;;;;;8.33;8.00;;;;;;;;5048421;28;45459;-87
2022/02/17 10:36:39;;;;;;;;;14.00;10.33;;;;;;;;5016629;28;45369;-86
2022/02/17 10:39:07;;;;;;;;;10.00;7.00;;;;;;;;5016639;28;45558;-86
2022/02/17 10:41:49;;;;;;;;;7.67;6.00;;;;;;;;5030647;28;45726;-87
2022/02/17 10:44:15;;;;;;;;;9.33;8.33;;;;;;;;5044969;28;45588;-87
2022/02/17 10:46:40;;;;;;;;;11.67;6.67;;;;;;;;5033081;28;45534;-86
2022/02/17 10:49:12;;;;;;;;;9.00;5.00;;;;;;;;5032675;28;45560;-87
2022/02/17 10:51:38;;;;;;;;;8.67;4.33;;;;;;;;5016036;28;47369;-87
2022/02/17 10:54:03;;;;;;;;;11.67;7.00;;;;;;;;5032422;28;45333;-86
2022/02/17 10:56:31;;;;;;;;;7.00;2.67;;;;;;;;5013229;28;45475;-86
2022/02/17 10:59:00;;;;;;;;;7.33;5.67;;;;;;;;5031671;28;45530;-86
2022/02/17 11:01:26;;;;;;;;;15.00;8.00;;;;;;;;5029323;28;46753;-87
2022/02/17 11:03:53;;;;;;;;;12.00;6.00;;;;;;;;5038024;27;45843;-87
2022/02/17 11:06:19;;;;;;;;;7.67;7.00;;;;;;;;5091962;27;47522;-87
2022/02/17 11:08:45;;;;;;;;;7.00;4.67;;;;;;;;5088807;27;45505;-86
2022/02/17 11:11:13;;;;;;;;;8.67;7.00;;;;;;;;5086898;27;46591;-87
2022/02/17 11:13:38;;;;;;;;;12.33;7.33;;;;;;;;5079179;27;45474;-88
2022/02/17 11:16:04;;;;;;;;;10.33;6.00;;;;;;;;5068848;27;45936;-88
2022/02/17 11:18:30;;;;;;;;;10.33;5.67;;;;;;;;5075711;27;45867;-87
2022/02/17 11:20:55;;;;;;;;;10.00;5.00;;;;;;;;5076487;27;47074;-87
2022/02/17 11:23:29;;;;;;;;;7.00;5.00;;;;;;;;5088993;27;45511;-86
2022/02/17 11:25:54;;;;;;;;;20.00;8.67;;;;;;;;5078028;27;45500;-87
2022/02/17 11:28:29;;;;;;;;;8.00;5.00;;;;;;;;5094312;27;45423;-86
2022/02/17 11:30:58;;;;;;;;;16.00;11.00;;;;;;;;5077859;27;47555;-86
2022/02/17 11:33:37;;;;;;;;;12.67;8.00;;;;;;;;5080364;27;45574;-87
2022/02/17 11:36:19;;;;;;;;;12.00;4.33;;;;;;;;5095593;27;45366;-88
2022/02/17 11:38:50;;;;;;;;;13.33;9.67;;;;;;;;5078652;27;45607;-87
2022/02/17 11:41:17;;;;;;;;;6.33;5.00;;;;;;;;5076910;27;46009;-87
2022/02/17 11:43:42;;;;;;;;;5.00;5.00;;;;;;;;5094924;27;45496;-95
2022/02/17 11:46:09;;;;;;;;;8.00;4.67;;;;;;;;5101025;27;44901;-91
2022/02/17 11:48:39;;;;;;;;;4.33;4.00;;;;;;;;5121830;27;45443;-91
2022/02/17 11:51:14;;;;;;;;;6.00;3.67;;;;;;;;5109564;27;47431;-91
2022/02/17 11:53:40;;;;;;;;;6.67;4.33;;;;;;;;5116361;27;45558;-92
2022/02/17 11:56:06;;;;;;;;;4.67;2.33;;;;;;;;5111182;27;45410;-91
2022/02/17 11:58:40;;;;;;;;;7.00;4.00;;;;;;;;5097592;27;45730;-89
2022/02/17 12:01:33;;;;;;;;;7.00;5.00;;;;;;;;5087594;27;45684;-89
2022/02/17 12:03:58;;;;;;;;;5.00;4.00;;;;;;;;5096088;27;45726;-85
2022/02/17 12:06:46;;;;;;;;;9.00;6.00;;;;;;;;5091153;27;45473;-87
2022/02/17 12:09:29;;;;;;;;;10.00;4.00;;;;;;;;5093449;27;45634;-86
2022/02/17 12:11:55;;;;;;;;;6.33;5.00;;;;;;;;5080837;27;46465;-85
2022/02/17 12:14:20;;;;;;;;;9.33;4.33;;;;;;;;5102981;27;45462;-87
2022/02/17 12:16:48;;;;;;;;;5.00;4.00;;;;;;;;5112036;27;45515;-88
2022/02/17 12:19:16;;;;;;;;;6.33;3.00;;;;;;;;5102912;27;45574;-87
2022/02/17 12:21:43;;;;;;;;;8.33;5.67;;;;;;;;5094899;27;46682;-88
2022/02/17 12:24:09;;;;;;;;;6.00;4.00;;;;;;;;5094554;27;45520;-87
2022/02/17 12:26:41;;;;;;;;;4.67;3.00;;;;;;;;5087691;27;45566;-87
2022/02/17 12:29:19;;;;;;;;;9.67;5.00;;;;;;;;5109696;27;45484;-90
2022/02/17 12:31:45;;;;;;;;;6.67;3.00;;;;;;;;5072160;27;48082;-87
2022/02/17 12:34:10;;;;;;;;;7.00;5.00;;;;;;;;5082729;27;45711;-87
2022/02/17 12:36:38;;;;;;;;;5.67;3.67;;;;;;;;5103448;27;45358;-87
2022/02/17 12:39:04;;;;;;;;;6.33;4.00;;;;;;;;5102219;27;45540;-85
2022/02/17 12:41:29;;;;;;;;;4.33;3.00;;;;;;;;5087470;27;46414;-85
2022/02/17 12:43:54;;;;;;;;;7.33;4.00;;;;;;;;5090757;27;45528;-84
2022/02/17 12:46:20;;;;;;;;;8.33;6.00;;;;;;;;5105454;27;45336;-86
2022/02/17 12:48:45;;;;;;;;;7.00;7.00;;;;;;;;5072000;27;45561;-84
2022/02/17 12:51:22;;;;;;;;;8.67;5.00;;;;;;;;5091948;27;47789;-86
2022/02/17 12:53:50;;;;;;;;;9.33;5.00;;;;;;;;5064782;27;45445;-85
2022/02/17 12:56:19;;;;;;;;;3.67;3.67;;;;;;;;5067459;27;45313;-85
2022/02/17 12:58:44;;;;;;;;;6.33;3.33;;;;;;;;5081179;27;45495;-85
2022/02/17 13:01:19;;;;;;;;;13.00;5.67;;;;;;;;5091632;27;47236;-84
2022/02/17 13:03:44;;;;;;;;;8.00;5.00;;;;;;;;5089763;27;45415;-85
2022/02/17 13:06:18;;;;;;;;;1.00;1.00;;;;;;;;5069160;27;45473;-84
2022/02/17 13:08:45;;;;;;;;;9.00;5.00;;;;;;;;5099995;27;45779;-85
2022/02/17 13:11:10;;;;;;;;;3.33;2.00;;;;;;;;5061747;27;48898;-85
2022/02/17 13:13:35;;;;;;;;;7.00;5.00;;;;;;;;5090065;27;45519;-85
2022/02/17 13:16:01;;;;;;;;;5.00;2.33;;;;;;;;5079252;27;45653;-85
2022/02/17 13:18:26;;;;;;;;;7.33;6.00;;;;;;;;5070470;27;45441;-85
2022/02/17 13:20:54;;;;;;;;;6.33;5.33;;;;;;;;5085261;27;45469;-85
2022/02/17 13:23:20;;;;;;;;;6.33;4.00;;;;;;;;5083509;27;45530;-85
2022/02/17 13:25:45;;;;;;;;;8.00;5.33;;;;;;;;5075698;27;45685;-85
2022/02/17 13:28:11;;;;;;;;;6.67;3.67;;;;;;;;5093137;27;45600;-85
2022/02/17 13:30:38;;;;;;;;;8.33;4.00;;;;;;;;5077607;27;46502;-84
2022/02/17 13:33:03;;;;;;;;;5.33;3.00;;;;;;;;5089492;27;45642;-85
2022/02/17 13:35:29;;;;;;;;;5.67;3.00;;;;;;;;5060078;27;45496;-85
2022/02/17 13:37:58;;;;;;;;;6.67;5.00;;;;;;;;5087162;27;45513;-85
2022/02/17 13:40:25;;;;;;;;;7.00;5.00;;;;;;;;5065901;27;48310;-84
2022/02/17 13:43:01;;;;;;;;;3.00;1.67;;;;;;;;5084721;27;45355;-85
2022/02/17 13:45:28;;;;;;;;;5.33;3.33;;;;;;;;5085295;27;45587;-84
2022/02/17 13:47:53;;;;;;;;;5.00;4.00;;;;;;;;5069615;27;45590;-84
2022/02/17 13:50:18;;;;;;;;;3.67;3.33;;;;;;;;5088276;27;45998;-85
2022/02/17 13:53:13;;;;;;;;;5.67;5.00;;;;;;;;5088056;27;45507;-85
2022/02/17 13:55:39;;;;;;;;;4.00;2.67;;;;;;;;5088643;27;45370;-85
2022/02/17 13:58:05;;;;;;;;;10.00;4.33;;;;;;;;5067132;27;45585;-85
2022/02/17 14:00:38;;;;;;;;;5.33;3.67;;;;;;;;5084756;27;46651;-85
2022/02/17 14:03:22;;;;;;;;;3.33;2.00;;;;;;;;5086298;27;45448;-84
2022/02/17 14:05:47;;;;;;;;;4.67;3.33;;;;;;;;5086477;27;45607;-85
2022/02/17 14:08:13;;;;;;;;;5.67;5.00;;;;;;;;5070234;27;45424;-84
2022/02/17 14:10:39;;;;;;;;;4.00;3.67;;;;;;;;5084363;27;46005;-85
2022/02/17 14:13:05;;;;;;;;;7.67;3.67;;;;;;;;5066047;27;45853;-85
2022/02/17 14:15:30;;;;;;;;;4.33;2.67;;;;;;;;5065443;27;45675;-84
2022/02/17 14:17:55;;;;;;;;;6.67;5.67;;;;;;;;5070743;27;45628;-85
2022/02/17 14:20:20;;;;;;;;;4.33;2.67;;;;;;;;5090063;27;45568;-85
2022/02/17 14:22:46;;;;;;;;;7.33;4.00;;;;;;;;5089741;27;46892;-84
2022/02/17 14:25:11;;;;;;;;;7.00;3.67;;;;;;;;5089186;27;45558;-84
2022/02/17 14:27:36;;;;;;;;;3.00;3.00;;;;;;;;5067177;27;45498;-84
2022/02/17 14:30:02;;;;;;;;;3.67;2.67;;;;;;;;5067540;27;47287;-84
2022/02/17 14:32:27;;;;;;;;;6.00;4.33;;;;;;;;5085636;27;45690;-84
2022/02/17 14:35:11;;;;;;;;;7.33;3.33;;;;;;;;5089208;27;45509;-85
2022/02/17 14:37:41;;;;;;;;;4.67;4.67;;;;;;;;5072638;27;45537;-83